Albury
Weather
Information

and Archive.
Albury Local Internet Skycam This service provided and funded by Albury Local Internet

Help keep our weatherstation running:

Lavington Weatherstation live data - Conditions of Use

Last updated on 23-Jun-2017 at 18:22:03
Temperature
  Currently  8.2 degrees C
  Apparent Temperature ("Wind Chill") is 3.7 degrees C
  Today has ranged from  3.3 at 04:51 to 11.8 at 15:21
  Yesterday ranged from  2.9 at 04:27 to 14.4 at 14:22
Wind
  Now:    5.8kmh, gusting to   6.5kmh from 41 degrees ( NE)
  Hour:   8.0kmh, gusting to  10.8kmh
Rainfall
   0.4mm Midnight to Midnight (ie, yesterday)
   0.2mm Since Midnight (ie, so far today)
   0.2mm 9am yesterday to 9am today
   6.6mm Total this month
Misc items
  Relative humidity is 17%
  Dewpoint is -15.4 deg C
  Estimated Cloudbase is 9700 feet
  Barometric Pressure is 1017.0 mbar
  Solar Insolation: 0 W/m^2
  UV Index: 0.0 (Low) *NEW*
Top Solar flares in the last 24 hours

Last 24 hours Temperature Graph (click graph for history)
temperature

Last 24 hours Dynamic Wind display (click image for 4-hour image):
Wind Rose

Current Yarrawonga Weather Radar and Infrared Satellite Images from the BOM.

Hourly summaries in the tables below are cumulative and peak values
for the preceding hour, and instantaneous values at the hour.
So far today, 23-Jun-2017
Time   Barom.  Wind + Gust    Direction   RH   Rain    Temp.  Minimum    Maximum
01:00  1023.0   1.2   7.2kmh  146 ( SE)   26%  0.0mm    4.7   4.1@00:00  5.2@00:28
02:00  1022.0   2.7  13.3kmh  111 (ESE)   26%  0.0mm    4.7   4.4@01:09  4.9@01:38
03:00  1022.0   1.0   8.6kmh   50 ( NE)   26%  0.0mm    4.4   4.3@02:51  4.9@02:13
04:00  1022.0   0.5   6.5kmh   82 ( E )   26%  0.2mm    4.4   4.3@03:02  4.5@03:36
05:00  1021.0   0.8   7.9kmh  137 ( SE)   26%  0.0mm    3.6   3.3@04:51  4.4@04:00
06:00  1021.0   2.3  10.8kmh  139 ( SE)   25%  0.0mm    4.1   3.6@05:00  4.2@05:29
07:00  1021.0   0.3   8.6kmh  110 (ESE)   26%  0.0mm    3.8   3.8@06:54  4.2@06:02
08:00  1021.0   2.3   8.6kmh  143 ( SE)   25%  0.0mm    3.7   3.6@07:50  3.9@07:16
09:00  1021.0   2.4  10.8kmh  151 (SSE)   26%  0.0mm    4.1   3.7@08:00  4.2@08:51
10:00  1021.0   4.1  11.2kmh  109 (ESE)   26%  0.0mm    4.8   4.1@09:00  4.9@09:59
11:00  1021.0   2.7   9.4kmh  135 ( SE)   24%  0.0mm    5.8   4.7@10:05  6.9@10:29
12:00  1020.0   3.1   8.6kmh  141 ( SE)   22%  0.0mm    6.6   5.4@11:17  6.8@11:41
13:00  1018.0   3.4  12.6kmh  130 ( SE)   14%  0.0mm    8.3   6.6@12:00  9.4@12:45
14:00  1018.0   2.0  10.1kmh  157 (SSE)   71%  0.0mm   11.0   7.8@13:08 11.1@13:48
15:00  1017.0   3.2  10.1kmh  110 (ESE)    3%  0.0mm    9.8   9.6@14:43 11.0@14:00
16:00  1017.0   0.2   5.8kmh  136 ( SE)   62%  0.0mm   10.5   9.8@15:00 11.8@15:21
17:00  1017.0   0.9   9.4kmh   64 (ENE)   11%  0.0mm    8.3   8.5@16:59 10.7@16:11
18:00  1017.0   1.8   7.9kmh  356 ( N )   24%  0.0mm    6.8   6.2@17:49  8.3@17:00
18:22  1017.0   8.0  10.8kmh   39 ( NE)   17%  0.0mm    8.2   6.8@18:00  8.2@18:19


Summary for yesterday, 22-Jun-2017
Time   Barom.  Wind + Gust    Direction   RH   Rain    Temp.  Minimum    Maximum
01:00  1027.0   0.4   7.2kmh  105 (ESE)   26%  0.0mm    5.6   5.0@00:47  5.7@00:00
02:00  1027.0   2.6   9.4kmh  107 (ESE)   26%  0.0mm    5.8   5.6@01:00  6.2@01:18
03:00  1027.0   0.2   6.5kmh  114 (ESE)   26%  0.0mm    5.5   5.4@02:28  5.8@02:00
04:00  1027.0   0.2   6.5kmh  128 ( SE)   26%  0.0mm    4.0   4.2@03:57  5.5@03:00
05:00  1027.0   0.0   0.0kmh  129 ( SE)   26%  0.0mm    3.6   2.9@04:27  4.0@04:00
06:00  1027.0   0.2   7.2kmh  129 ( SE)   26%  0.4mm    4.7   3.6@05:00  4.7@05:50
07:00  1028.0   1.6   9.4kmh  134 ( SE)   26%  0.0mm    3.4   3.4@06:59  4.8@06:04
08:00  1028.0   0.6   8.6kmh  150 (SSE)   26%  0.0mm    4.5   3.2@07:02  4.6@07:55
09:00  1028.0   0.0   4.3kmh  128 ( SE)   26%  0.0mm    5.1   4.4@08:04  5.1@08:26
10:00  1029.0   0.7   6.5kmh  189 ( S )   26%  0.0mm    6.0   4.8@09:05  5.9@09:48
11:00  1029.0   0.1   6.5kmh  164 (SSE)   22%  0.0mm    7.1   5.6@10:13  8.1@10:45
12:00  1028.0   0.1   6.5kmh  140 ( SE)    3%  0.0mm    9.8   7.1@11:00  9.8@11:59
13:00  1027.0   1.9   7.2kmh  132 ( SE)   84%  0.0mm   13.1   9.8@12:00 13.6@12:58
14:00  1026.0   2.2   8.6kmh  135 ( SE)   75%  0.0mm   12.8  12.2@13:52 14.3@13:08
15:00  1025.0   2.9   8.6kmh  194 (SSW)   63%  0.0mm   12.0  12.1@14:46 14.4@14:22
16:00  1025.0   4.0  10.1kmh  224 ( SW)   69%  0.0mm   10.5  10.5@15:59 12.0@15:00
17:00  1025.0   2.2   6.5kmh  351 ( N )   76%  0.0mm    9.0   9.0@16:59 10.5@16:00
18:00  1025.0   6.6  10.8kmh   38 ( NE)   97%  0.0mm    8.2   7.8@17:51  9.0@17:00
19:00  1025.0   7.7  10.1kmh   33 (NNE)   14%  0.0mm    8.3   7.9@18:07  8.6@18:28
20:00  1025.0   4.8   9.4kmh   34 ( NE)   17%  0.0mm    7.5   7.4@19:54  8.5@19:08
21:00  1024.0   6.4  13.3kmh   41 ( NE)   18%  0.0mm    5.7   5.7@20:59  7.8@20:04
22:00  1024.0   0.3   6.5kmh  113 (ESE)   24%  0.0mm    4.5   4.4@21:09  5.7@21:00
23:00  1024.0   0.0   4.3kmh  113 (ESE)   25%  0.0mm    4.5   4.1@22:07  5.2@22:43
00:00  1024.0   0.1   5.8kmh  113 (ESE)   26%  0.0mm    4.1   3.4@23:20  5.0@23:50